Time;durP1;ratioP1;P1;durP2;ratioP2;P2;SDS_P1;SDS_P2;PMS_P1;PMS_P2;Temp;Humidity;BMP_temperature;BMP_pressure;BME280_temperature;BME280_humidity;BME280_pressure;Samples;Min_cycle;Max_cycle;Signal;HPM_P1;HPM_P2
2023/12/13 00:00:28;;;;;;;29.70;15.02;;;4.40;99.90;;;;;;4902224;29;20067;-64
2023/12/13 00:02:57;;;;;;;26.23;14.27;;;4.40;99.90;;;;;;4898183;29;20079;-64
2023/12/13 00:05:24;;;;;;;27.10;14.38;;;4.40;99.90;;;;;;4907126;29;20403;-64
2023/12/13 00:07:51;;;;;;;24.30;14.25;;;4.40;99.90;;;;;;4910894;29;20532;-65
2023/12/13 00:10:18;;;;;;;24.00;12.98;;;4.40;99.90;;;;;;4910567;29;20331;-64
2023/12/13 00:12:45;;;;;;;17.90;9.68;;;4.40;99.90;;;;;;4907803;29;20048;-65
2023/12/13 00:15:12;;;;;;;14.05;7.93;;;4.40;99.90;;;;;;4907322;29;20044;-65
2023/12/13 00:17:38;;;;;;;21.25;11.10;;;4.40;99.90;;;;;;4907026;29;20052;-65
2023/12/13 00:20:07;;;;;;;20.17;12.13;;;4.30;99.90;;;;;;4900410;29;20060;-64
2023/12/13 00:22:33;;;;;;;22.65;12.07;;;4.30;99.90;;;;;;4887587;29;20056;-64
2023/12/13 00:25:00;;;;;;;22.92;11.93;;;4.30;99.90;;;;;;4907864;29;20127;-63
2023/12/13 00:27:27;;;;;;;18.77;10.27;;;4.30;99.90;;;;;;4902511;29;20212;-64
2023/12/13 00:29:54;;;;;;;18.08;10.68;;;4.30;99.90;;;;;;4903890;29;20124;-65
2023/12/13 00:32:21;;;;;;;16.52;9.90;;;4.30;99.90;;;;;;4907603;29;20048;-64
2023/12/13 00:34:48;;;;;;;16.75;9.80;;;4.30;99.90;;;;;;4882299;29;20071;-64
2023/12/13 00:37:15;;;;;;;;;;;4.30;99.90;;;;;;4897613;29;20048;-65
2023/12/13 00:39:42;;;;;;;19.55;10.45;;;4.30;99.90;;;;;;4896499;29;20005;-64
2023/12/13 00:42:09;;;;;;;12.93;7.20;;;4.30;99.90;;;;;;4901647;29;20047;-65
2023/12/13 00:44:36;;;;;;;15.88;9.57;;;4.30;99.90;;;;;;4900275;29;20054;-64
2023/12/13 00:47:03;;;;;;;19.77;10.68;;;4.30;99.90;;;;;;4911287;29;20078;-65
2023/12/13 00:49:30;;;;;;;19.10;10.38;;;4.30;99.90;;;;;;4915662;29;20051;-63
2023/12/13 00:51:57;;;;;;;19.40;10.95;;;4.30;99.90;;;;;;4915297;29;20123;-63
2023/12/13 00:54:24;;;;;;;17.08;10.63;;;4.30;99.90;;;;;;4909437;29;20044;-64
2023/12/13 00:56:51;;;;;;;18.40;10.48;;;4.30;99.90;;;;;;4914384;29;20052;-64
2023/12/13 00:59:18;;;;;;;15.75;9.30;;;4.30;99.90;;;;;;4910288;29;20584;-64
2023/12/13 01:01:46;;;;;;;14.35;9.02;;;4.30;99.90;;;;;;4915311;29;20055;-64
2023/12/13 01:04:13;;;;;;;15.10;8.63;;;4.30;99.90;;;;;;4913342;29;20070;-64
2023/12/13 01:06:40;;;;;;;14.00;8.43;;;4.40;99.90;;;;;;4913685;29;20118;-64
2023/12/13 01:09:08;;;;;;;13.38;7.78;;;4.40;99.90;;;;;;4914327;29;20048;-64
2023/12/13 01:11:35;;;;;;;12.60;7.47;;;4.40;99.90;;;;;;4905289;29;20120;-64
2023/12/13 01:14:06;;;;;;;13.65;8.05;;;4.40;99.90;;;;;;4894861;29;20044;-64
2023/12/13 01:16:33;;;;;;;13.73;7.78;;;4.40;99.90;;;;;;4894629;29;20100;-64
2023/12/13 01:19:00;;;;;;;13.15;7.53;;;4.50;99.90;;;;;;4895497;29;20049;-65
2023/12/13 01:21:28;;;;;;;14.32;8.25;;;4.60;99.90;;;;;;4895739;29;20541;-65
2023/12/13 01:23:55;;;;;;;12.98;7.90;;;4.60;99.90;;;;;;4904835;29;20055;-65
2023/12/13 01:26:22;;;;;;;15.55;8.30;;;4.60;99.90;;;;;;4907339;29;20045;-65
2023/12/13 01:28:49;;;;;;;13.32;8.05;;;4.60;99.90;;;;;;4918325;29;20062;-65
2023/12/13 01:31:17;;;;;;;10.90;6.68;;;4.60;99.90;;;;;;4909389;29;20048;-65
2023/12/13 01:33:44;;;;;;;13.32;7.28;;;4.70;99.90;;;;;;4918619;29;20076;-65
2023/12/13 01:36:11;;;;;;;9.90;5.95;;;4.70;99.90;;;;;;4913866;29;20048;-65
2023/12/13 01:38:38;;;;;;;10.55;6.22;;;4.70;99.90;;;;;;4919104;29;20127;-65
2023/12/13 01:41:05;;;;;;;14.00;6.90;;;4.70;99.90;;;;;;4921611;29;20044;-64
2023/12/13 01:43:41;;;;;;;12.02;7.07;;;4.70;99.90;;;;;;4916542;29;20550;-64
2023/12/13 01:46:09;;;;;;;13.95;7.20;;;4.60;99.90;;;;;;4903017;29;20062;-64
2023/12/13 01:48:36;;;;;;;12.30;7.75;;;4.60;99.90;;;;;;4917055;29;20083;-64
2023/12/13 01:51:03;;;;;;;;;;;4.60;99.90;;;;;;4921607;29;20040;-64
2023/12/13 01:53:32;;;;;;;14.35;8.27;;;4.60;99.90;;;;;;4916898;29;19927;-64
2023/12/13 01:56:02;;;;;;;13.15;7.30;;;4.60;99.90;;;;;;4920576;29;20723;-64
2023/12/13 01:58:29;;;;;;;13.57;7.60;;;4.60;99.90;;;;;;4914300;29;20055;-65
2023/12/13 02:00:56;;;;;;;12.85;8.13;;;4.50;99.90;;;;;;4918824;29;20052;-65
2023/12/13 02:03:24;;;;;;;13.00;8.07;;;4.60;99.90;;;;;;4920987;29;20059;-65
2023/12/13 02:05:51;;;;;;;12.73;7.38;;;4.50;99.90;;;;;;4920019;29;20058;-65
2023/12/13 02:08:18;;;;;;;11.55;8.02;;;4.50;99.90;;;;;;4920027;29;20062;-65
2023/12/13 02:10:46;;;;;;;17.35;8.48;;;4.40;99.90;;;;;;4915774;29;20050;-65
2023/12/13 02:13:14;;;;;;;18.38;8.60;;;4.40;99.90;;;;;;4914036;29;20052;-65
2023/12/13 02:15:43;;;;;;;14.27;8.82;;;4.40;99.90;;;;;;4901467;29;20378;-65
2023/12/13 02:18:10;;;;;;;14.10;8.90;;;4.50;99.90;;;;;;4901023;29;20104;-65
2023/12/13 02:20:37;;;;;;;;;;;4.50;99.90;;;;;;4905775;29;20036;-65
2023/12/13 02:23:04;;;;;;;12.40;7.93;;;4.50;99.90;;;;;;4904405;29;19923;-65
2023/12/13 02:25:38;;;;;;;16.42;8.80;;;4.50;99.90;;;;;;4914074;29;20048;-65
2023/12/13 02:28:06;;;;;;;16.08;9.15;;;4.50;99.90;;;;;;4908844;29;20120;-65
2023/12/13 02:30:32;;;;;;;;;;;4.50;99.90;;;;;;4908656;29;20390;-65
2023/12/13 02:32:59;;;;;;;16.63;8.60;;;4.50;99.90;;;;;;4920519;29;19951;-65
2023/12/13 02:35:26;;;;;;;11.98;8.32;;;4.50;99.90;;;;;;4918453;29;20051;-65
2023/12/13 02:37:53;;;;;;;13.65;8.57;;;4.40;99.90;;;;;;4916675;29;20044;-64
2023/12/13 02:40:21;;;;;;;13.00;8.05;;;4.50;99.90;;;;;;4911236;29;20083;-65
2023/12/13 02:42:48;;;;;;;12.40;7.88;;;4.60;99.90;;;;;;4917680;29;20064;-65
2023/12/13 02:45:15;;;;;;;12.32;7.72;;;4.60;99.90;;;;;;4917431;29;20051;-64
2023/12/13 02:47:42;;;;;;;;;;;4.60;99.90;;;;;;4910104;29;20063;-65
2023/12/13 02:50:13;;;;;;;16.27;8.65;;;4.50;99.90;;;;;;4910170;29;19923;-65
2023/12/13 02:52:40;;;;;;;14.32;8.63;;;4.50;99.90;;;;;;4917475;29;20050;-65
2023/12/13 02:55:11;;;;;;;17.08;9.55;;;4.50;99.90;;;;;;4909155;29;20465;-65
2023/12/13 02:57:38;;;;;;;17.77;8.73;;;4.60;99.90;;;;;;4912368;29;20095;-65
2023/12/13 03:00:06;;;;;;;18.73;9.77;;;4.60;99.90;;;;;;4917408;29;20044;-65
2023/12/13 03:02:33;;;;;;;99.25;12.88;;;4.60;99.90;;;;;;4917447;29;20476;-65
2023/12/13 03:05:01;;;;;;;9.43;5.78;;;4.60;99.90;;;;;;4912999;29;20036;-65
2023/12/13 03:07:28;;;;;;;;;;;4.50;99.90;;;;;;4912114;29;20064;-65
2023/12/13 03:09:55;;;;;;;6.80;4.85;;;4.50;99.90;;;;;;4914839;29;20025;-64
2023/12/13 03:12:21;;;;;;;11.02;6.45;;;4.50;99.90;;;;;;4916539;29;20104;-65
2023/12/13 03:14:48;;;;;;;12.80;6.93;;;4.50;99.90;;;;;;4916836;29;20408;-65
2023/12/13 03:17:15;;;;;;;10.13;6.05;;;4.50;99.90;;;;;;4902299;29;20036;-65
2023/12/13 03:19:42;;;;;;;13.38;7.90;;;4.50;99.90;;;;;;4909641;29;20461;-65
2023/12/13 03:22:12;;;;;;;15.88;7.60;;;4.50;99.90;;;;;;4900907;29;20032;-65
2023/12/13 03:24:41;;;;;;;130.18;14.30;;;4.50;99.90;;;;;;4908536;29;20052;-64
2023/12/13 03:27:08;;;;;;;18.20;6.63;;;4.50;99.90;;;;;;4916915;29;20054;-65
2023/12/13 03:29:35;;;;;;;12.05;5.95;;;4.50;99.90;;;;;;4913455;29;20036;-65
2023/12/13 03:32:02;;;;;;;11.65;6.75;;;4.50;99.90;;;;;;4917114;29;20083;-65
2023/12/13 03:34:28;;;;;;;9.68;6.50;;;4.50;99.90;;;;;;4907943;29;20064;-64
2023/12/13 03:36:55;;;;;;;11.40;7.32;;;4.50;99.90;;;;;;4916951;29;20425;-65
2023/12/13 03:39:22;;;;;;;15.85;8.13;;;4.60;99.90;;;;;;4916837;29;20032;-64
2023/12/13 03:41:49;;;;;;;9.65;5.63;;;4.50;99.90;;;;;;4895657;29;20044;-65
2023/12/13 03:44:17;;;;;;;5.43;3.22;;;4.50;99.90;;;;;;4908962;29;20127;-65
2023/12/13 03:46:44;;;;;;;5.80;3.60;;;4.50;99.90;;;;;;4907623;29;20045;-65
2023/12/13 03:49:11;;;;;;;6.05;3.53;;;4.40;99.90;;;;;;4911803;29;20050;-65
2023/12/13 03:51:43;;;;;;;5.65;3.35;;;4.40;99.90;;;;;;4916541;29;20036;-64
2023/12/13 03:54:10;;;;;;;6.43;3.45;;;4.30;99.90;;;;;;4916171;29;20050;-64
2023/12/13 03:56:36;;;;;;;7.35;3.65;;;4.30;99.90;;;;;;4914991;29;20040;-65
2023/12/13 03:59:03;;;;;;;4.28;2.47;;;4.30;99.90;;;;;;4916465;29;20040;-65
2023/12/13 04:01:30;;;;;;;4.05;2.55;;;4.20;99.90;;;;;;4913876;29;20044;-64
2023/12/13 04:03:57;;;;;;;4.05;2.72;;;4.10;99.90;;;;;;4915856;29;20048;-65
2023/12/13 04:06:24;;;;;;;2.97;2.15;;;4.00;99.90;;;;;;4916650;29;20127;-65
2023/12/13 04:08:51;;;;;;;3.50;1.98;;;4.10;99.90;;;;;;4916504;29;20044;-64
2023/12/13 04:11:17;;;;;;;2.08;1.52;;;4.10;99.90;;;;;;4909344;29;20056;-65
2023/12/13 04:13:45;;;;;;;4.50;2.47;;;4.10;99.90;;;;;;4913799;29;20517;-65
2023/12/13 04:16:12;;;;;;;4.97;2.28;;;4.10;99.90;;;;;;4912886;29;20122;-65
2023/12/13 04:18:39;;;;;;;4.15;3.05;;;4.10;99.90;;;;;;4901459;29;20513;-65
2023/12/13 04:21:06;;;;;;;4.85;3.17;;;4.20;99.90;;;;;;4908243;29;20044;-65
2023/12/13 04:23:33;;;;;;;4.75;2.15;;;4.20;99.90;;;;;;4900954;29;20059;-65
2023/12/13 04:26:01;;;;;;;4.30;1.85;;;4.30;99.90;;;;;;4914825;29;20052;-65
2023/12/13 04:28:27;;;;;;;1.85;0.95;;;4.30;99.90;;;;;;4904731;29;20390;-65
2023/12/13 04:30:54;;;;;;;1.52;0.93;;;4.20;99.90;;;;;;4905653;29;20051;-65
2023/12/13 04:33:21;;;;;;;1.55;1.17;;;4.20;99.90;;;;;;4906774;29;20436;-64
2023/12/13 04:35:48;;;;;;;2.10;1.15;;;4.20;99.90;;;;;;4902793;29;20040;-64
2023/12/13 04:38:15;;;;;;;2.22;1.35;;;4.20;99.90;;;;;;4906134;29;20517;-65
2023/12/13 04:40:41;;;;;;;3.30;1.33;;;4.20;99.90;;;;;;4903910;29;20044;-65
2023/12/13 04:43:08;;;;;;;2.78;1.75;;;4.30;99.90;;;;;;4904425;29;20044;-65
2023/12/13 04:45:35;;;;;;;2.58;1.30;;;4.30;99.90;;;;;;4904735;29;20059;-65
2023/12/13 04:48:02;;;;;;;2.00;1.30;;;4.20;99.90;;;;;;4902909;29;20059;-65
2023/12/13 04:50:29;;;;;;;1.77;0.98;;;4.20;99.90;;;;;;4902893;29;20048;-65
2023/12/13 04:52:56;;;;;;;2.13;1.48;;;4.20;99.90;;;;;;4903982;29;20044;-65
2023/12/13 04:55:23;;;;;;;2.10;1.30;;;4.20;99.90;;;;;;4904851;29;20083;-65
2023/12/13 04:57:50;;;;;;;1.60;1.20;;;4.20;99.90;;;;;;4904273;29;20127;-65
2023/12/13 05:00:16;;;;;;;4.32;2.40;;;4.10;99.90;;;;;;4903849;29;20045;-65
2023/12/13 05:02:43;;;;;;;4.88;2.80;;;4.20;99.90;;;;;;4904941;29;20076;-64
2023/12/13 05:05:10;;;;;;;3.47;1.95;;;4.20;99.90;;;;;;4903439;29;20056;-65
2023/12/13 05:07:37;;;;;;;7.03;4.13;;;4.20;99.90;;;;;;4904953;29;20109;-65
2023/12/13 05:10:05;;;;;;;5.43;4.10;;;4.20;99.90;;;;;;4902633;29;20580;-64
2023/12/13 05:12:31;;;;;;;5.55;2.60;;;4.20;99.90;;;;;;4903911;29;20044;-65
2023/12/13 05:14:58;;;;;;;3.03;2.10;;;4.20;99.90;;;;;;4903041;29;20051;-64
2023/12/13 05:17:25;;;;;;;4.88;2.40;;;4.20;99.90;;;;;;4905068;29;20047;-65
2023/12/13 05:19:52;;;;;;;4.72;2.92;;;4.20;99.90;;;;;;4905498;29;20553;-65
2023/12/13 05:22:22;;;;;;;11.35;5.63;;;4.20;99.90;;;;;;4905988;29;20051;-65
2023/12/13 05:24:49;;;;;;;10.48;6.70;;;4.20;99.90;;;;;;4903389;29;20566;-65
2023/12/13 05:27:15;;;;;;;12.43;7.30;;;4.20;99.90;;;;;;4905214;29;20049;-65
2023/12/13 05:29:45;;;;;;;14.15;8.50;;;4.20;99.90;;;;;;4905305;29;20119;-65
2023/12/13 05:32:12;;;;;;;16.17;10.00;;;4.30;99.90;;;;;;4885780;29;20115;-65
2023/12/13 05:34:39;;;;;;;20.45;9.23;;;4.30;99.90;;;;;;4902381;29;20052;-65
2023/12/13 05:37:05;;;;;;;12.82;5.90;;;4.30;99.90;;;;;;4904630;29;20060;-65
2023/12/13 05:39:33;;;;;;;7.97;5.10;;;4.40;99.90;;;;;;4901027;29;20059;-64
2023/12/13 05:42:00;;;;;;;7.28;4.38;;;4.30;99.90;;;;;;4908094;29;20663;-64
2023/12/13 05:44:27;;;;;;;6.80;4.18;;;4.30;99.90;;;;;;4888343;29;20055;-65
2023/12/13 05:46:54;;;;;;;9.60;4.22;;;4.30;99.90;;;;;;4899950;29;20048;-64
2023/12/13 05:49:22;;;;;;;6.30;4.25;;;4.30;99.90;;;;;;4905035;29;20084;-65
2023/12/13 05:51:49;;;;;;;7.30;4.63;;;4.30;99.90;;;;;;4888515;29;20048;-64
2023/12/13 05:54:15;;;;;;;8.88;6.43;;;4.30;99.90;;;;;;4901189;29;20060;-64
2023/12/13 05:56:42;;;;;;;12.90;6.32;;;4.20;99.90;;;;;;4905740;29;20048;-64
2023/12/13 05:59:10;;;;;;;14.48;8.10;;;4.30;99.90;;;;;;4900703;29;20056;-64
2023/12/13 06:01:37;;;;;;;15.32;8.20;;;4.30;99.90;;;;;;4895957;29;20037;-65
2023/12/13 06:04:04;;;;;;;13.40;7.85;;;4.40;99.90;;;;;;4904845;29;20051;-65
2023/12/13 06:06:32;;;;;;;8.85;5.35;;;4.40;99.90;;;;;;4902486;29;20045;-64
2023/12/13 06:08:58;;;;;;;6.15;3.97;;;4.40;99.90;;;;;;4903013;29;20048;-64
2023/12/13 06:11:25;;;;;;;5.47;4.10;;;4.30;99.90;;;;;;4906011;29;20041;-65
2023/12/13 06:13:52;;;;;;;11.20;5.07;;;4.40;99.90;;;;;;4898525;29;20043;-65
2023/12/13 06:16:19;;;;;;;7.97;4.80;;;4.40;99.90;;;;;;4913888;29;20052;-64
2023/12/13 06:18:46;;;;;;;6.68;4.07;;;4.30;99.90;;;;;;4901308;29;20044;-65
2023/12/13 06:21:13;;;;;;;12.43;4.95;;;4.30;99.90;;;;;;4905002;29;20053;-65
2023/12/13 06:23:40;;;;;;;6.60;3.05;;;4.40;99.90;;;;;;4888392;29;20044;-64
2023/12/13 06:26:06;;;;;;;5.97;3.72;;;4.30;99.90;;;;;;4883220;29;20048;-64
2023/12/13 06:28:33;;;;;;;4.47;3.42;;;4.40;99.90;;;;;;4916622;29;20056;-65
2023/12/13 06:31:00;;;;;;;6.15;3.90;;;4.40;99.90;;;;;;4916553;29;20039;-64
2023/12/13 06:33:27;;;;;;;7.35;4.10;;;4.40;99.90;;;;;;4910372;29;20132;-65
2023/12/13 06:35:54;;;;;;;5.88;3.80;;;4.40;99.90;;;;;;4907483;29;20044;-65
2023/12/13 06:38:21;;;;;;;11.65;4.90;;;4.40;99.90;;;;;;4902717;29;20048;-65
2023/12/13 06:40:48;;;;;;;8.55;4.93;;;4.40;99.90;;;;;;4882048;29;20048;-65
2023/12/13 06:43:16;;;;;;;6.88;3.83;;;4.50;99.90;;;;;;4899673;29;20560;-64
2023/12/13 06:45:42;;;;;;;8.90;4.35;;;4.40;99.90;;;;;;4905121;29;20467;-64
2023/12/13 06:48:10;;;;;;;10.70;4.78;;;4.40;99.90;;;;;;4905238;29;20123;-65
2023/12/13 06:50:37;;;;;;;9.27;5.13;;;4.20;99.90;;;;;;4898762;29;20502;-65
2023/12/13 06:53:04;;;;;;;10.32;5.35;;;4.20;99.90;;;;;;4905174;29;20036;-65
2023/12/13 06:55:31;;;;;;;7.72;5.00;;;4.20;99.90;;;;;;4906625;29;20047;-65
2023/12/13 06:57:57;;;;;;;8.27;5.13;;;4.20;99.90;;;;;;4906706;29;20069;-65
2023/12/13 07:00:27;;;;;;;6.82;4.28;;;4.20;99.90;;;;;;4919640;29;20525;-65
2023/12/13 07:02:54;;;;;;;9.23;5.15;;;4.20;99.90;;;;;;4917516;29;20036;-65
2023/12/13 07:05:21;;;;;;;8.40;4.93;;;4.20;99.90;;;;;;4907297;29;20119;-65
2023/12/13 07:07:48;;;;;;;6.60;4.20;;;4.20;99.90;;;;;;4914150;29;20068;-65
2023/12/13 07:10:15;;;;;;;5.85;3.90;;;4.20;99.90;;;;;;4917357;29;20040;-65
2023/12/13 07:12:42;;;;;;;7.22;2.92;;;4.20;99.90;;;;;;4920680;29;20036;-65
2023/12/13 07:15:10;;;;;;;5.93;2.88;;;4.20;99.90;;;;;;4901248;29;20041;-65
2023/12/13 07:17:38;;;;;;;6.10;3.55;;;4.30;99.90;;;;;;4903423;29;20112;-65
2023/12/13 07:20:06;;;;;;;8.25;4.18;;;4.30;99.90;;;;;;4911033;29;20430;-65
2023/12/13 07:22:33;;;;;;;6.88;4.05;;;4.20;99.90;;;;;;4903285;29;20107;-64
2023/12/13 07:25:00;;;;;;;7.95;5.18;;;4.30;99.90;;;;;;4915475;29;20036;-65
2023/12/13 07:27:27;;;;;;;7.20;5.30;;;4.30;99.90;;;;;;4916070;29;20063;-65
2023/12/13 07:29:53;;;;;;;6.85;4.25;;;4.30;99.90;;;;;;4916689;29;20048;-65
2023/12/13 07:32:20;;;;;;;6.43;3.90;;;4.40;99.90;;;;;;4910140;29;20059;-65
2023/12/13 07:34:48;;;;;;;6.30;4.88;;;4.30;99.90;;;;;;4916031;29;20036;-64
2023/12/13 07:37:16;;;;;;;8.32;4.55;;;4.30;99.90;;;;;;4916081;29;20049;-65
2023/12/13 07:39:42;;;;;;;8.38;5.18;;;4.30;99.90;;;;;;4914951;29;20434;-64
2023/12/13 07:42:09;;;;;;;12.75;5.47;;;4.30;99.90;;;;;;4917056;29;20128;-64
2023/12/13 07:44:36;;;;;;;9.45;5.78;;;4.30;99.90;;;;;;4915209;29;20050;-65
2023/12/13 07:47:03;;;;;;;13.32;7.00;;;4.30;99.90;;;;;;4916338;29;20054;-64
2023/12/13 07:49:30;;;;;;;13.15;7.60;;;4.30;99.90;;;;;;4907566;29;20366;-65
2023/12/13 07:51:57;;;;;;;18.25;9.43;;;4.20;99.90;;;;;;4908981;29;20052;-65
2023/12/13 07:54:24;;;;;;;24.30;11.68;;;4.30;99.90;;;;;;4915673;29;20123;-65
2023/12/13 07:56:53;;;;;;;27.33;13.38;;;4.40;99.90;;;;;;4918919;29;20523;-65
2023/12/13 07:59:19;;;;;;;13.95;7.47;;;4.40;99.90;;;;;;4914268;29;20405;-65
2023/12/13 08:01:47;;;;;;;8.30;4.50;;;4.50;99.90;;;;;;4909268;29;20036;-64
2023/12/13 08:04:14;;;;;;;7.78;3.78;;;4.50;99.90;;;;;;4915469;29;20048;-65
2023/12/13 08:06:41;;;;;;;9.82;4.47;;;4.50;99.90;;;;;;4912597;29;20062;-65
2023/12/13 08:09:11;;;;;;;11.02;5.15;;;4.50;99.90;;;;;;4923280;29;20056;-65
2023/12/13 08:11:38;;;;;;;10.30;5.85;;;4.50;99.90;;;;;;4915868;29;20047;-65
2023/12/13 08:14:05;;;;;;;11.48;5.57;;;4.50;99.90;;;;;;4915338;29;20059;-65
2023/12/13 08:16:33;;;;;;;6.22;3.90;;;4.50;99.90;;;;;;4908511;29;20074;-64
2023/12/13 08:19:00;;;;;;;3.90;2.83;;;4.60;99.90;;;;;;4908231;29;20072;-65
2023/12/13 08:21:27;;;;;;;6.03;3.03;;;4.60;99.90;;;;;;4911817;29;20044;-64
2023/12/13 08:23:53;;;;;;;4.20;2.67;;;4.50;99.90;;;;;;4914282;29;20036;-65
2023/12/13 08:26:20;;;;;;;7.32;3.60;;;4.60;99.90;;;;;;4914455;29;20051;-65
2023/12/13 08:28:47;;;;;;;6.38;3.13;;;4.60;99.90;;;;;;4914553;29;20058;-65
2023/12/13 08:31:28;;;;;;;8.65;4.43;;;4.70;99.90;;;;;;4915622;29;20048;-65
2023/12/13 08:33:54;;;;;;;8.77;4.70;;;4.70;99.90;;;;;;4914546;29;20062;-65
2023/12/13 08:36:22;;;;;;;10.50;4.50;;;4.80;99.90;;;;;;4911804;29;20383;-65
2023/12/13 08:38:51;;;;;;;24.35;6.25;;;4.80;99.90;;;;;;4915451;29;20040;-65
2023/12/13 08:41:18;;;;;;;15.32;5.32;;;4.80;99.90;;;;;;4911153;29;20047;-65
2023/12/13 08:43:44;;;;;;;12.75;5.88;;;4.80;99.90;;;;;;4907324;29;20135;-65
2023/12/13 08:46:12;;;;;;;7.95;4.88;;;4.90;99.90;;;;;;4915038;29;20434;-65
2023/12/13 08:48:39;;;;;;;;;;;4.90;99.90;;;;;;4915652;29;20868;-65
2023/12/13 08:51:06;;;;;;;10.38;6.15;;;5.00;99.90;;;;;;4898280;29;19929;-65
2023/12/13 08:53:33;;;;;;;13.80;7.32;;;5.10;99.90;;;;;;4915225;29;20067;-63
2023/12/13 08:56:00;;;;;;;18.08;9.98;;;5.00;99.90;;;;;;4915201;29;20481;-65
2023/12/13 08:58:30;;;;;;;17.75;9.82;;;5.00;99.90;;;;;;4911206;29;20043;-65
2023/12/13 09:00:58;;;;;;;20.60;12.65;;;5.10;99.90;;;;;;4906620;29;20479;-65
2023/12/13 09:03:25;;;;;;;26.10;13.60;;;5.10;99.90;;;;;;4906852;29;20055;-65
2023/12/13 09:05:53;;;;;;;;;;;5.10;99.90;;;;;;4906041;29;20127;-65
2023/12/13 09:08:20;;;;;;;19.73;10.52;;;5.20;99.90;;;;;;4915171;29;19930;-65
2023/12/13 09:10:47;;;;;;;18.20;10.20;;;5.10;99.90;;;;;;4913378;29;20497;-64
2023/12/13 09:13:15;;;;;;;16.92;9.77;;;5.10;99.90;;;;;;4914891;29;20079;-64
2023/12/13 09:15:45;;;;;;;18.00;10.38;;;5.20;99.90;;;;;;4914091;29;20401;-64
2023/12/13 09:18:12;;;;;;;18.85;10.18;;;5.20;99.90;;;;;;4913138;29;20082;-65
2023/12/13 09:20:40;;;;;;;22.98;11.27;;;5.20;99.90;;;;;;4914561;29;20044;-65
2023/12/13 09:23:09;;;;;;;30.70;11.32;;;5.30;99.90;;;;;;4914263;29;20044;-65
2023/12/13 09:25:36;;;;;;;16.15;8.57;;;5.30;99.90;;;;;;4911393;29;20063;-65
2023/12/13 09:28:03;;;;;;;12.95;7.45;;;5.40;99.90;;;;;;4909221;29;20040;-65
2023/12/13 09:30:30;;;;;;;12.05;6.93;;;5.30;99.90;;;;;;4914785;29;20048;-65
2023/12/13 09:32:57;;;;;;;15.32;7.93;;;5.40;99.90;;;;;;4914663;29;20047;-64
2023/12/13 09:35:24;;;;;;;16.75;8.23;;;5.40;99.90;;;;;;4906607;29;20051;-65
2023/12/13 09:37:51;;;;;;;18.60;9.02;;;5.40;99.90;;;;;;4905314;29;20123;-65
2023/12/13 09:40:19;;;;;;;14.20;8.05;;;5.40;99.90;;;;;;4914828;29;20050;-65
2023/12/13 09:42:46;;;;;;;20.63;12.48;;;5.50;99.90;;;;;;4913752;29;20040;-65
2023/12/13 09:45:21;;;;;;;21.63;11.30;;;5.50;99.90;;;;;;4915388;29;20092;-65
2023/12/13 09:47:52;;;;;;;19.92;12.40;;;5.60;99.90;;;;;;4918499;29;20513;-65
2023/12/13 09:50:21;;;;;;;18.70;9.65;;;5.70;99.90;;;;;;4916492;29;20497;-65
2023/12/13 09:52:50;;;;;;;16.77;10.18;;;5.80;99.90;;;;;;4918211;29;20112;-65
2023/12/13 09:55:17;;;;;;;15.65;9.25;;;5.90;99.90;;;;;;4917521;29;20127;-65
2023/12/13 09:57:44;;;;;;;17.42;10.45;;;5.90;99.90;;;;;;4918129;29;20568;-65
2023/12/13 10:00:12;;;;;;;19.05;10.43;;;5.90;99.90;;;;;;4913589;29;20134;-65
2023/12/13 10:02:39;;;;;;;19.08;10.90;;;5.90;99.90;;;;;;4918097;29;20135;-65
2023/12/13 10:05:09;;;;;;;13.75;7.72;;;5.90;99.90;;;;;;4912081;29;20080;-65
2023/12/13 10:07:37;;;;;;;20.95;11.18;;;5.90;99.90;;;;;;4916149;29;20076;-65
2023/12/13 10:10:06;;;;;;;21.70;11.98;;;5.80;99.90;;;;;;4916958;29;20552;-65
2023/12/13 10:12:32;;;;;;;22.58;12.63;;;5.80;99.90;;;;;;4917653;29;20116;-65
2023/12/13 10:15:12;;;;;;;16.02;10.35;;;5.80;99.90;;;;;;4912354;29;20362;-65
2023/12/13 10:17:40;;;;;;;16.33;10.88;;;5.80;99.90;;;;;;4918049;29;20044;-65
2023/12/13 10:20:10;;;;;;;15.98;10.45;;;5.90;99.90;;;;;;4910730;29;20048;-65
2023/12/13 10:22:38;;;;;;;15.70;10.15;;;6.00;99.90;;;;;;4915645;29;20490;-65
2023/12/13 10:25:06;;;;;;;14.05;8.45;;;6.00;99.90;;;;;;4916743;29;20402;-65
2023/12/13 10:27:33;;;;;;;12.45;8.15;;;6.10;99.90;;;;;;4917759;29;20051;-65
2023/12/13 10:30:01;;;;;;;15.75;8.20;;;6.10;99.90;;;;;;4909550;29;20044;-65
2023/12/13 10:32:28;;;;;;;15.65;8.85;;;6.10;99.90;;;;;;4917754;29;20052;-65
2023/12/13 10:34:56;;;;;;;16.40;10.18;;;6.10;99.90;;;;;;4911860;29;20096;-64
2023/12/13 10:37:27;;;;;;;16.33;10.75;;;6.00;99.90;;;;;;4917606;29;20044;-65
2023/12/13 10:39:56;;;;;;;17.85;10.65;;;6.00;99.90;;;;;;4917734;29;20039;-64
2023/12/13 10:42:24;;;;;;;17.38;11.13;;;5.90;99.90;;;;;;4912562;29;20490;-64
2023/12/13 10:44:52;;;;;;;18.67;11.60;;;5.90;99.90;;;;;;4916934;29;20420;-65
2023/12/13 10:47:28;;;;;;;;;;;5.80;99.90;;;;;;4911766;29;20518;-65
2023/12/13 10:49:55;;;;;;;17.92;10.70;;;5.80;99.90;;;;;;4917313;29;19923;-64
2023/12/13 10:52:26;;;;;;;21.30;12.27;;;5.80;99.90;;;;;;4911954;29;20478;-65
2023/12/13 10:54:54;;;;;;;25.77;14.00;;;5.70;99.90;;;;;;4916782;29;20048;-65
2023/12/13 10:57:21;;;;;;;;;;;5.80;99.90;;;;;;4914027;29;20080;-65
2023/12/13 10:59:49;;;;;;;20.42;12.68;;;5.80;99.90;;;;;;4915721;29;20013;-65
2023/12/13 11:02:18;;;;;;;23.83;13.05;;;5.70;99.90;;;;;;4914764;29;20044;-65
2023/12/13 11:04:47;;;;;;;24.65;14.57;;;5.80;99.90;;;;;;4911515;29;20045;-65
2023/12/13 11:07:14;;;;;;;27.63;14.07;;;5.80;99.90;;;;;;4912497;29;20420;-64
2023/12/13 11:09:54;;;;;;;29.55;15.05;;;5.80;99.90;;;;;;4915815;29;20085;-65
2023/12/13 11:12:21;;;;;;;22.40;12.32;;;5.90;99.90;;;;;;4912548;29;20056;-65
2023/12/13 11:14:50;;;;;;;26.15;14.40;;;5.90;99.90;;;;;;4907994;29;20316;-65
2023/12/13 11:17:19;;;;;;;25.80;14.40;;;5.90;99.90;;;;;;4916544;29;20080;-65
2023/12/13 11:19:47;;;;;;;22.23;13.15;;;5.80;99.90;;;;;;4916799;29;20114;-65
2023/12/13 11:22:14;;;;;;;22.85;11.57;;;5.90;99.90;;;;;;4910671;29;20048;-65
2023/12/13 11:24:41;;;;;;;17.45;11.55;;;6.00;99.90;;;;;;4915852;29;20032;-65
2023/12/13 11:27:10;;;;;;;22.83;12.05;;;6.00;99.90;;;;;;4916361;29;20131;-64
2023/12/13 11:29:37;;;;;;;21.27;12.73;;;6.00;99.90;;;;;;4908695;29;20051;-65
2023/12/13 11:32:05;;;;;;;28.35;14.48;;;6.10;99.90;;;;;;4916898;29;20335;-65
2023/12/13 11:34:34;;;;;;;29.00;15.02;;;6.00;99.90;;;;;;4915713;29;20132;-65
2023/12/13 11:37:03;;;;;;;24.48;13.13;;;6.00;99.90;;;;;;4909244;29;20050;-65
2023/12/13 11:39:31;;;;;;;23.90;13.25;;;6.10;99.90;;;;;;4910213;29;20143;-65
2023/12/13 11:41:58;;;;;;;29.95;13.23;;;6.10;99.90;;;;;;4916514;29;20051;-65
2023/12/13 11:44:33;;;;;;;36.78;14.25;;;6.10;99.90;;;;;;4915610;29;20047;-65
2023/12/13 11:47:01;;;;;;;23.75;12.48;;;6.10;99.90;;;;;;4912809;29;20127;-65
2023/12/13 11:49:28;;;;;;;26.70;13.18;;;6.20;99.90;;;;;;4912454;29;20446;-65
2023/12/13 11:52:00;;;;;;;28.52;13.73;;;6.20;99.90;;;;;;4915885;29;20076;-64
2023/12/13 11:54:27;;;;;;;33.42;14.38;;;6.20;99.90;;;;;;4915334;29;20048;-65
2023/12/13 11:56:54;;;;;;;17.75;11.95;;;6.20;99.90;;;;;;4915369;29;20048;-65
2023/12/13 11:59:21;;;;;;;;;;;6.20;99.90;;;;;;4916380;29;20050;-65
2023/12/13 12:01:49;;;;;;;20.63;13.35;;;6.10;99.90;;;;;;4910388;29;19966;-65
2023/12/13 12:04:18;;;;;;;24.73;13.40;;;6.20;99.90;;;;;;4897657;29;20052;-65
2023/12/13 12:06:47;;;;;;;21.45;12.07;;;6.10;99.90;;;;;;4904561;29;20052;-65
2023/12/13 12:09:16;;;;;;;26.15;13.77;;;6.10;99.90;;;;;;4902007;29;20040;-65
2023/12/13 12:11:43;;;;;;;28.05;14.35;;;6.20;99.90;;;;;;4907589;29;20070;-64
2023/12/13 12:14:11;;;;;;;23.20;13.85;;;6.20;99.90;;;;;;4915597;29;20059;-65
2023/12/13 12:16:37;;;;;;;;;;;6.30;99.90;;;;;;4916362;29;20055;-65
2023/12/13 12:19:06;;;;;;;19.48;13.13;;;6.30;99.90;;;;;;4915876;29;20445;-65
2023/12/13 12:21:35;;;;;;;27.00;14.50;;;6.40;99.90;;;;;;4893524;29;20044;-65
2023/12/13 12:24:03;;;;;;;30.25;14.77;;;6.40;99.90;;;;;;4914708;29;20040;-65
2023/12/13 12:26:30;;;;;;;25.70;14.07;;;6.40;99.90;;;;;;4911473;29;20418;-65
2023/12/13 12:28:56;;;;;;;26.15;13.85;;;6.50;99.90;;;;;;4914507;29;20084;-65
2023/12/13 12:31:23;;;;;;;21.90;14.10;;;6.50;99.90;;;;;;4914799;29;20044;-65
2023/12/13 12:33:57;;;;;;;23.67;13.27;;;6.50;99.90;;;;;;4914008;29;20063;-65
2023/12/13 12:36:25;;;;;;;24.75;14.10;;;6.50;99.90;;;;;;4896778;29;20493;-65
2023/12/13 12:38:53;;;;;;;25.05;14.93;;;6.30;99.90;;;;;;4915274;29;20040;-65
2023/12/13 12:41:22;;;;;;;27.38;16.55;;;6.20;99.90;;;;;;4914620;29;20086;-65
2023/12/13 12:43:50;;;;;;;22.75;14.23;;;6.30;99.90;;;;;;4914648;29;20489;-65
2023/12/13 12:46:18;;;;;;;24.90;15.60;;;6.30;99.90;;;;;;4904750;29;20048;-65
2023/12/13 12:48:45;;;;;;;43.70;24.17;;;6.30;99.90;;;;;;4912297;29;20054;-65
2023/12/13 12:51:12;;;;;;;41.80;23.98;;;6.30;99.90;;;;;;4915225;29;20047;-65